This is the latest recevied weather packets stored in our database for station/object EPGD. If no packets are shown the sender has not sent any weather packets the latest 10 day(s).
| Time | Temp. | Humidity | Pressure | Rain* | Wind** | Luminosity | Snow |
|---|---|---|---|---|---|---|---|
| 1777883703 | 18.89° C | 55% | 1010 hPa | - | - | - | - |
| 1777881904 | 18.89° C | 55% | 1010 hPa | - | - | - | - |
| 1777880104 | 18.89° C | 55% | 1009 hPa | - | - | - | - |
| 1777878304 | 17.78° C | 55% | 1009 hPa | - | - | - | - |
| 1777876504 | 17.78° C | 51% | 1009 hPa | - | - | - | - |
| 1777874703 | 16.67° C | 51% | 1009 hPa | - | - | - | - |
| 1777872904 | 15.56° C | 51% | 1008 hPa | - | - | - | - |
| 1777871104 | 15.56° C | 47% | 1009 hPa | - | - | - | - |
| 1777869303 | 13.89° C | 54% | 1009 hPa | - | - | - | - |
| 1777867504 | 13.89° C | 50% | 1008 hPa | - | - | - | - |
| 1777865703 | 12.78° C | 54% | 1008 hPa | - | - | - | - |
| 1777863904 | 10.56° C | 66% | 1009 hPa | - | - | - | - |
| 1777862103 | 10° C | 76% | 1009 hPa | - | - | - | - |
| 1777860304 | 12.78° C | 54% | 1008 hPa | - | - | - | - |
| 1777858504 | 11.67° C | 62% | 1009 hPa | - | - | - | - |
| 1777856704 | 13.89° C | 54% | 1009 hPa | - | - | - | - |
| 1777854904 | 12.78° C | 62% | 1009 hPa | - | - | - | - |
| 1777853104 | 13.89° C | 54% | 1009 hPa | - | - | - | - |
| 1777851304 | 12.78° C | 62% | 1010 hPa | - | - | - | - |
| 1777849504 | 13.89° C | 58% | 1010 hPa | - | - | - | - |
| 1777847703 | 13.89° C | 58% | 1010 hPa | - | - | - | - |
| 1777845904 | 13.89° C | 58% | 1011 hPa | - | - | - | - |
| 1777844103 | 15.56° C | 51% | 1011 hPa | - | - | - | - |
| 1777842304 | 15° C | 54% | 1011 hPa | - | - | - | - |
| 1777840504 | 15.56° C | 51% | 1011 hPa | - | - | - | - |
* Rain since midnight (hover to see other rain measurements)
** Current wind speed in m/s (hover to see current wind gust speed)